Time;durP1;ratioP1;P1;durP2;ratioP2;P2;SDS_P1;SDS_P2;PMS_P1;PMS_P2;Temp;Humidity;BMP_temperature;BMP_pressure;BME280_temperature;BME280_humidity;BME280_pressure;Samples;Min_cycle;Max_cycle;Signal;HPM_P1;HPM_P2
2022/05/25 00:01:47;;;;;;;6.10;4.20;;;;;;;6.66;68.51;98778.21;104832;1274;61795;-24
2022/05/25 00:04:14;;;;;;;7.00;4.60;;;;;;;6.42;70.03;98775.21;104671;1272;63013;-24
2022/05/25 00:06:42;;;;;;;6.80;3.60;;;;;;;6.26;69.59;98776.77;105053;1271;75408;-24
2022/05/25 00:09:09;;;;;;;8.40;4.10;;;;;;;6.18;70.47;98774.23;104929;1271;76957;-24
2022/05/25 00:11:37;;;;;;;5.80;3.40;;;;;;;6.68;70.90;98776.13;104918;1271;73321;-24
2022/05/25 00:14:05;;;;;;;5.90;3.60;;;;;;;7.34;69.52;98775.68;104867;1271;63608;-24
2022/05/25 00:16:32;;;;;;;6.10;4.20;;;;;;;7.49;69.20;98771.89;104962;1274;61722;-24
2022/05/25 00:21:46;;;;;;;7.40;4.40;;;;;;;7.14;69.54;98780.23;104806;1271;77321;-24
2022/05/25 00:24:13;;;;;;;6.00;4.00;;;;;;;6.94;68.79;98778.19;104987;1271;74381;-24
2022/05/25 00:26:41;;;;;;;6.70;4.00;;;;;;;6.69;69.35;98777.17;105076;1274;62779;-24
2022/05/25 00:29:08;;;;;;;5.40;3.40;;;;;;;6.41;70.48;98777.70;105019;1271;63031;-24
2022/05/25 00:31:36;;;;;;;7.20;3.40;;;;;;;6.18;70.36;98779.20;104803;1271;76491;-25
2022/05/25 00:34:03;;;;;;;5.90;2.30;;;;;;;6.01;71.40;98781.23;104831;1271;77049;-24
2022/05/25 00:36:31;;;;;;;4.70;2.70;;;;;;;6.45;72.70;98785.02;104915;1271;75230;-24
2022/05/25 00:38:58;;;;;;;4.60;3.20;;;;;;;7.07;71.53;98784.34;104831;1274;63271;-24
2022/05/25 00:41:28;;;;;;;4.50;2.90;;;;;;;7.18;70.44;98785.82;105136;1271;63132;-24
2022/05/25 00:43:56;;;;;;;5.00;3.30;;;;;;;7.02;70.08;98784.67;105146;1271;76543;-24
2022/05/25 00:46:24;;;;;;;4.00;3.20;;;;;;;6.79;70.63;98783.90;104844;1272;77289;-24
2022/05/25 00:48:53;;;;;;;3.90;2.80;;;;;;;6.55;70.88;98779.16;104887;1271;75373;-24
2022/05/25 00:51:42;;;;;;;4.50;2.70;;;;;;;6.33;71.65;98783.89;104963;1271;63090;-24
2022/05/25 00:54:12;;;;;;;5.10;2.50;;;;;;;6.14;71.93;98781.38;104736;1271;61126;-24
2022/05/25 00:56:42;;;;;;;4.90;2.60;;;;;;;6.03;72.44;98780.05;104918;1271;76615;-25
2022/05/25 00:59:13;;;;;;;7.30;2.70;;;;;;;6.53;72.55;98782.89;104859;1272;76699;-24
2022/05/25 01:01:41;;;;;;;5.60;3.30;;;;;;;7.16;70.85;98786.14;104981;1271;75201;-24
2022/05/25 01:04:09;;;;;;;5.90;2.80;;;;;;;7.26;70.21;98786.30;104687;1274;63094;-24
2022/05/25 01:06:48;;;;;;;5.00;3.00;;;;;;;7.12;69.80;98788.14;104642;1274;62938;-24
2022/05/25 01:09:28;;;;;;;9.50;2.90;;;;;;;6.88;70.61;98785.15;104718;1271;75567;-24
2022/05/25 01:12:04;;;;;;;4.30;2.90;;;;;;;6.62;70.82;98782.79;105074;1271;76942;-24
2022/05/25 01:15:10;;;;;;;5.60;2.90;;;;;;;6.37;70.79;98784.20;105093;1272;75469;-24
2022/05/25 01:18:16;;;;;;;4.60;2.90;;;;;;;6.11;72.00;98785.09;104632;1274;62282;-24
2022/05/25 01:20:48;;;;;;;6.40;1.90;;;;;;;5.99;72.37;98781.70;104820;1271;62848;-24
2022/05/25 01:23:54;;;;;;;3.70;2.40;;;;;;;6.66;71.97;98786.30;105091;1271;74485;-24
2022/05/25 01:26:31;;;;;;;6.40;2.80;;;;;;;7.28;70.48;98792.33;105003;1271;77371;-24
2022/05/25 01:29:30;;;;;;;7.00;2.80;;;;;;;7.21;69.90;98789.59;104812;1271;75673;-24
2022/05/25 01:32:36;;;;;;;4.40;3.00;;;;;;;6.89;70.14;98790.95;104619;1274;63197;-24
2022/05/25 01:35:18;;;;;;;6.80;3.00;;;;;;;6.57;70.87;98789.70;104498;1271;61838;-24
2022/05/25 01:37:52;;;;;;;5.20;2.90;;;;;;;6.32;71.36;98787.63;104777;1271;76494;-24
2022/05/25 01:40:35;;;;;;;12.00;3.20;;;;;;;6.12;71.73;98789.46;104616;1274;76978;-24
2022/05/25 01:43:24;;;;;;;6.30;2.70;;;;;;;5.91;71.91;98792.17;104863;1272;74240;-24
2022/05/25 01:45:55;;;;;;;5.10;1.80;;;;;;;5.73;71.84;98789.27;104790;1274;63883;-24
2022/05/25 01:48:22;;;;;;;2.90;2.20;;;;;;;6.24;71.74;98788.45;104760;1271;61695;-24
2022/05/25 01:50:58;;;;;;;4.90;2.40;;;;;;;6.78;70.85;98792.20;104616;1271;75533;-25
2022/05/25 01:53:29;;;;;;;5.90;2.70;;;;;;;6.82;70.53;98793.85;104687;1271;76887;-24
2022/05/25 01:55:58;;;;;;;7.40;3.30;;;;;;;6.61;70.81;98794.79;104720;1274;74168;-24
2022/05/25 01:58:26;;;;;;;7.90;3.10;;;;;;;6.33;71.23;98792.69;104792;1271;61995;-24
2022/05/25 02:00:59;;;;;;;8.10;2.70;;;;;;;6.08;71.45;98794.73;105115;1271;63033;-24
2022/05/25 02:06:54;;;;;;;3.60;2.50;;;;;;;5.61;72.13;98793.11;104910;1274;77436;-24
2022/05/25 02:09:35;;;;;;;5.60;2.00;;;;;;;5.49;73.26;98789.07;104832;1274;75320;-24
2022/05/25 02:12:22;;;;;;;5.70;2.10;;;;;;;6.29;73.39;98788.12;105094;1271;62951;-24
2022/05/25 02:15:10;;;;;;;13.80;3.00;;;;;;;6.92;71.35;98790.02;105075;1273;63552;-24
2022/05/25 02:17:44;;;;;;;6.20;2.70;;;;;;;6.91;70.68;98790.48;105113;1271;76516;-24
2022/05/25 02:20:15;;;;;;;9.00;2.90;;;;;;;6.66;71.34;98789.96;105015;1272;77012;-24
2022/05/25 02:22:45;;;;;;;6.70;3.30;;;;;;;6.41;71.47;98793.70;105113;1272;75519;-24
2022/05/25 02:25:29;;;;;;;10.10;3.10;;;;;;;6.18;71.60;98794.27;104880;1271;62961;-24
2022/05/25 02:28:01;;;;;;;3.40;2.90;;;;;;;5.92;71.97;98796.44;105152;1271;63017;-24
2022/05/25 02:30:30;;;;;;;7.60;2.90;;;;;;;5.74;72.45;98793.67;104941;1271;76842;-25
2022/05/25 02:33:07;;;;;;;7.60;2.20;;;;;;;5.64;73.55;98792.93;104660;1271;77004;-24
2022/05/25 02:35:34;;;;;;;5.20;2.60;;;;;;;6.22;73.76;98787.91;104854;1274;75482;-24
2022/05/25 02:38:04;;;;;;;6.80;3.10;;;;;;;7.01;71.95;98788.91;104968;1271;61784;-24
2022/05/25 02:40:33;;;;;;;4.30;3.00;;;;;;;7.43;70.11;98786.79;104896;1271;62031;-24
2022/05/25 02:43:00;;;;;;;4.50;3.10;;;;;;;7.68;69.12;98785.88;104651;1274;76813;-24
2022/05/25 02:45:28;;;;;;;12.40;2.80;;;;;;;7.89;68.25;98790.33;104981;1272;76227;-24
2022/05/25 02:47:55;;;;;;;7.10;3.30;;;;;;;8.10;67.56;98788.08;105146;1271;75462;-24
2022/05/25 02:50:23;;;;;;;12.20;3.30;;;;;;;8.21;66.57;98790.21;104884;1272;63168;-24
2022/05/25 02:52:50;;;;;;;13.50;3.30;;;;;;;8.08;66.04;98792.91;104800;1271;63020;-24
2022/05/25 02:55:18;;;;;;;13.80;3.50;;;;;;;7.89;66.28;98797.61;104767;1272;76572;-24
2022/05/25 02:57:45;;;;;;;5.90;3.00;;;;;;;7.83;66.53;98798.21;105008;1271;76926;-24
2022/05/25 03:00:13;;;;;;;4.90;2.50;;;;;;;7.94;66.84;98802.23;104673;1271;74178;-24
2022/05/25 03:02:40;;;;;;;7.20;2.60;;;;;;;8.80;66.41;98801.00;104731;1274;62146;-24
2022/05/25 03:05:09;;;;;;;5.80;2.90;;;;;;;9.84;63.88;98804.14;104891;1271;61248;-24
2022/05/25 03:07:37;;;;;;;11.20;3.60;;;;;;;10.31;62.27;98804.13;105067;1271;76538;-24
2022/05/25 03:10:05;;;;;;;5.30;2.90;;;;;;;10.49;60.96;98807.54;104901;1271;74906;-24
2022/05/25 03:12:32;;;;;;;10.10;3.30;;;;;;;10.50;60.68;98811.20;104765;1271;75541;-24
2022/05/25 03:15:00;;;;;;;6.90;3.10;;;;;;;10.50;60.80;98811.27;104963;1271;63022;-24
2022/05/25 03:17:27;;;;;;;9.60;3.50;;;;;;;10.53;60.42;98809.78;104978;1271;61778;-24
2022/05/25 03:19:55;;;;;;;7.80;3.40;;;;;;;10.53;60.20;98810.80;104953;1274;76597;-24
2022/05/25 03:22:23;;;;;;;5.90;3.70;;;;;;;10.57;60.09;98813.30;105123;1271;77434;-24
2022/05/25 03:24:50;;;;;;;7.90;3.90;;;;;;;10.49;60.40;98817.02;104931;1272;75607;-24
2022/05/25 03:27:18;;;;;;;10.20;3.60;;;;;;;10.61;60.67;98821.42;104800;1274;61643;-24
2022/05/25 03:29:45;;;;;;;14.70;4.20;;;;;;;10.92;60.03;98826.27;105221;1271;63139;-24
2022/05/25 03:32:13;;;;;;;5.50;3.30;;;;;;;11.19;59.38;98831.41;105064;1271;75364;-24
2022/05/25 03:34:41;;;;;;;7.90;3.10;;;;;;;11.37;58.82;98830.23;104926;1271;76954;-24
2022/05/25 03:37:08;;;;;;;6.20;3.20;;;;;;;11.66;58.28;98833.02;105041;1271;75304;-25
2022/05/25 03:39:35;;;;;;;6.80;3.10;;;;;;;11.93;57.46;98833.23;104878;1274;61122;-24
2022/05/25 03:42:07;;;;;;;5.40;3.50;;;;;;;12.03;57.29;98829.35;105124;1271;61820;-24
2022/05/25 03:44:35;;;;;;;7.00;3.00;;;;;;;12.17;57.12;98832.52;105061;1271;76533;-24
2022/05/25 03:47:03;;;;;;;7.70;3.10;;;;;;;12.37;57.15;98838.18;105118;1271;76309;-24
2022/05/25 03:49:30;;;;;;;4.30;2.70;;;;;;;12.60;56.24;98837.20;105012;1271;75579;-24
2022/05/25 03:51:58;;;;;;;5.10;3.30;;;;;;;12.76;56.06;98836.63;104915;1274;61125;-24
2022/05/25 03:54:25;;;;;;;5.20;3.20;;;;;;;12.82;55.59;98839.00;105089;1271;62095;-24
2022/05/25 03:56:53;;;;;;;5.00;3.10;;;;;;;12.91;55.09;98835.91;105083;1271;75260;-24
2022/05/25 03:59:21;;;;;;;6.60;3.50;;;;;;;13.13;55.29;98837.85;104850;1274;75369;-24
2022/05/25 04:01:48;;;;;;;4.10;3.10;;;;;;;13.27;55.00;98834.08;104725;1274;75563;-24
2022/05/25 04:04:16;;;;;;;3.90;2.90;;;;;;;13.37;54.64;98833.70;104894;1274;62183;-24
2022/05/25 04:06:44;;;;;;;10.40;3.40;;;;;;;13.54;54.43;98838.23;104623;1277;62056;-24
2022/05/25 04:09:12;;;;;;;5.50;3.60;;;;;;;13.71;54.29;98836.87;104799;1274;76591;-24
2022/05/25 04:11:41;;;;;;;4.80;3.40;;;;;;;13.92;54.37;98836.77;104773;1273;74970;-24
2022/05/25 04:14:09;;;;;;;4.90;2.80;;;;;;;14.06;53.57;98834.71;104663;1274;75391;-24
2022/05/25 04:16:36;;;;;;;9.50;3.50;;;;;;;14.21;54.16;98837.08;104716;1272;61756;-25
2022/05/25 04:19:04;;;;;;;5.80;2.90;;;;;;;14.47;54.06;98837.92;104929;1274;61748;-24
2022/05/25 04:21:31;;;;;;;5.80;3.20;;;;;;;14.81;53.26;98839.64;104608;1275;76521;-24
2022/05/25 04:23:59;;;;;;;6.60;3.10;;;;;;;15.10;52.77;98842.27;104701;1274;75274;-24
2022/05/25 04:26:28;;;;;;;4.40;2.70;;;;;;;15.22;51.51;98846.48;104606;1274;74385;-24
2022/05/25 04:28:56;;;;;;;5.50;2.60;;;;;;;15.21;50.21;98840.73;104630;1274;63136;-24
2022/05/25 04:31:24;;;;;;;4.40;2.70;;;;;;;15.17;49.63;98842.23;104587;1274;62995;-24
2022/05/25 04:33:52;;;;;;;3.90;2.40;;;;;;;15.30;49.65;98841.60;104768;1271;76604;-24
2022/05/25 04:36:22;;;;;;;3.60;2.90;;;;;;;15.47;47.26;98837.40;104858;1274;74665;-25
2022/05/25 04:38:49;;;;;;;8.60;2.80;;;;;;;15.52;46.87;98833.49;104903;1273;74392;-25
2022/05/25 04:41:16;;;;;;;7.60;2.80;;;;;;;15.59;46.61;98832.49;104672;1274;61786;-25
2022/05/25 04:43:44;;;;;;;5.70;2.60;;;;;;;15.72;45.87;98831.98;104966;1274;63102;-26
2022/05/25 04:46:12;;;;;;;4.70;2.60;;;;;;;15.88;46.56;98829.17;104899;1274;75507;-25
2022/05/25 04:48:39;;;;;;;4.80;2.90;;;;;;;16.04;45.98;98834.76;104788;1274;75977;-25
2022/05/25 04:51:07;;;;;;;7.50;2.90;;;;;;;16.10;45.11;98832.81;104761;1273;75267;-25
2022/05/25 04:53:35;;;;;;;3.40;2.70;;;;;;;16.12;44.61;98832.61;104645;1274;61828;-25
2022/05/25 04:58:49;;;;;;;3.20;2.10;;;;;;;16.35;44.29;98826.88;104743;1274;75556;-25
2022/05/25 05:01:19;;;;;;;4.10;2.40;;;;;;;16.28;43.14;98829.13;104645;1274;76885;-25
2022/05/25 05:03:47;;;;;;;3.80;2.40;;;;;;;16.11;43.26;98827.33;104754;1274;75450;-25
2022/05/25 05:06:15;;;;;;;7.50;2.70;;;;;;;15.88;43.65;98827.73;104841;1274;61930;-25
2022/05/25 05:08:43;;;;;;;3.70;2.60;;;;;;;15.78;43.61;98830.69;104797;1274;61288;-26
2022/05/25 05:11:17;;;;;;;3.50;2.20;;;;;;;15.71;43.82;98833.14;104632;1274;408742;-24
2022/05/25 05:13:45;;;;;;;3.30;2.40;;;;;;;15.72;44.23;98836.42;104749;1274;77108;-24
2022/05/25 05:16:14;;;;;;;3.70;1.90;;;;;;;15.93;44.23;98841.61;104800;1274;73323;-24
2022/05/25 05:18:43;;;;;;;2.50;1.60;;;;;;;16.18;43.09;98842.91;104639;1274;61912;-24
2022/05/25 05:21:31;;;;;;;5.60;2.30;;;;;;;16.11;42.46;98841.30;104644;1274;61146;-24
2022/05/25 05:23:59;;;;;;;3.10;2.00;;;;;;;16.35;42.47;98838.20;104960;1274;76710;-26
2022/05/25 05:26:26;;;;;;;3.60;2.10;;;;;;;16.53;41.05;98831.38;104831;1273;75705;-24
2022/05/25 05:28:54;;;;;;;4.30;1.70;;;;;;;16.80;40.54;98835.64;104713;1274;75396;-24
2022/05/25 05:31:22;;;;;;;3.20;1.60;;;;;;;16.96;41.00;98834.40;104973;1274;63054;-24
2022/05/25 05:33:49;;;;;;;1.90;1.20;;;;;;;17.21;39.29;98830.58;104789;1275;62986;-24
2022/05/25 05:36:23;;;;;;;4.00;1.80;;;;;;;17.31;38.03;98829.14;105081;1274;76491;-24
2022/05/25 05:38:52;;;;;;;;;;;;;;;17.64;38.94;98829.07;104790;1274;77297;-24
2022/05/25 05:41:21;;;;;;;3.50;1.60;;;;;;;17.76;37.85;98826.43;104628;1274;75296;-24
2022/05/25 05:43:48;;;;;;;3.40;1.70;;;;;;;17.91;37.70;98826.14;104788;1274;61917;-24
2022/05/25 05:46:16;;;;;;;4.00;1.80;;;;;;;17.79;36.89;98821.18;104892;1274;61681;-25
2022/05/25 05:48:43;;;;;;;1.90;1.40;;;;;;;17.78;37.48;98822.08;104640;1277;74594;-24
2022/05/25 05:51:11;;;;;;;3.50;1.80;;;;;;;17.79;37.87;98825.10;104600;1274;75999;-26
2022/05/25 05:53:40;;;;;;;5.40;2.40;;;;;;;17.83;38.23;98824.38;104806;1274;74387;-24
2022/05/25 05:56:08;;;;;;;8.40;2.40;;;;;;;17.97;37.91;98822.09;104839;1274;62398;-24
2022/05/25 05:58:35;;;;;;;3.70;2.00;;;;;;;18.02;38.00;98819.14;105031;1273;61734;-24
2022/05/25 06:01:03;;;;;;;3.50;1.80;;;;;;;18.25;38.05;98824.66;104984;1274;76556;-24
2022/05/25 06:03:30;;;;;;;3.40;1.80;;;;;;;18.45;38.11;98825.89;104988;1274;77112;-26
2022/05/25 06:05:58;;;;;;;3.40;1.90;;;;;;;18.66;38.40;98827.79;104757;1274;75415;-24
2022/05/25 06:08:26;;;;;;;2.60;1.70;;;;;;;18.76;38.35;98827.17;104720;1274;63055;-24
2022/05/25 06:10:55;;;;;;;5.70;1.90;;;;;;;18.58;37.67;98832.34;104631;1274;62690;-24
2022/05/25 06:13:22;;;;;;;7.70;2.80;;;;;;;18.53;37.99;98834.76;104755;1274;76557;-24
2022/05/25 06:21:24;;;;;;;5.10;1.70;;;;;;;18.59;38.43;98845.13;104927;1274;61157;-24
2022/05/25 06:23:52;;;;;;;6.90;1.90;;;;;;;18.71;37.96;98849.91;105053;1274;62766;-24
2022/05/25 06:26:19;;;;;;;1.90;1.60;;;;;;;18.83;38.46;98851.31;105141;1274;76604;-24
2022/05/25 06:28:47;;;;;;;2.90;1.60;;;;;;;18.87;37.93;98852.79;104927;1274;75935;-24
2022/05/25 06:31:14;;;;;;;2.90;1.60;;;;;;;18.84;37.92;98855.00;104752;1274;75279;-24
2022/05/25 06:33:43;;;;;;;2.80;1.60;;;;;;;18.89;38.85;98857.29;104928;1274;61752;-24
2022/05/25 06:36:16;;;;;;;3.70;1.60;;;;;;;19.07;38.78;98859.80;104779;1277;62787;-24
2022/05/25 06:38:44;;;;;;;2.70;1.70;;;;;;;19.23;37.29;98858.15;104867;1272;76380;-24
2022/05/25 06:41:12;;;;;;;2.80;1.80;;;;;;;19.33;37.21;98856.44;104712;1274;76878;-24
2022/05/25 06:43:40;;;;;;;2.20;1.60;;;;;;;19.52;37.35;98855.17;105120;1274;75240;-24
2022/05/25 06:46:09;;;;;;;5.20;1.80;;;;;;;19.50;36.23;98852.30;104773;1277;63326;-24
2022/05/25 06:48:53;;;;;;;3.40;1.60;;;;;;;19.54;37.48;98851.82;104591;1274;63113;-25
2022/05/25 06:51:23;;;;;;;3.10;1.70;;;;;;;19.67;37.08;98851.61;104862;1274;76886;-24
2022/05/25 06:53:50;;;;;;;2.20;1.70;;;;;;;19.74;37.44;98850.41;104651;1274;76955;-24
2022/05/25 06:56:18;;;;;;;3.30;1.50;;;;;;;19.76;37.53;98849.54;104769;1272;75369;-25
2022/05/25 06:58:47;;;;;;;3.60;1.60;;;;;;;19.82;38.04;98850.56;104665;1275;62950;-24
2022/05/25 07:01:14;;;;;;;3.50;1.60;;;;;;;19.92;38.27;98852.91;104646;1275;60993;-25
2022/05/25 07:03:43;;;;;;;3.50;1.70;;;;;;;20.00;37.50;98857.69;105099;1274;75697;-24
2022/05/25 07:06:11;;;;;;;1.90;1.50;;;;;;;20.14;37.37;98856.65;105012;1274;77100;-24
2022/05/25 07:08:39;;;;;;;1.70;1.50;;;;;;;20.27;37.62;98855.01;104753;1272;75384;-24
2022/05/25 07:11:06;;;;;;;2.40;1.50;;;;;;;20.47;36.95;98854.55;104935;1274;63249;-24
2022/05/25 07:13:34;;;;;;;2.90;1.50;;;;;;;20.62;35.56;98855.90;104947;1272;61983;-24
2022/05/25 07:16:03;;;;;;;2.20;1.40;;;;;;;20.77;35.81;98852.95;105006;1274;75516;-24
2022/05/25 07:18:32;;;;;;;2.90;1.40;;;;;;;20.83;34.91;98852.41;104614;1274;75765;-24
2022/05/25 07:21:12;;;;;;;1.80;1.20;;;;;;;20.88;33.92;98852.30;104788;1274;74416;-24
2022/05/25 07:23:41;;;;;;;2.30;1.40;;;;;;;20.85;34.21;98848.14;104730;1274;61183;-24
2022/05/25 07:26:09;;;;;;;2.10;1.30;;;;;;;20.67;34.17;98851.91;104792;1274;62264;-24
2022/05/25 07:28:36;;;;;;;2.70;1.50;;;;;;;20.73;35.25;98854.02;104662;1275;76520;-24
2022/05/25 07:31:26;;;;;;;6.80;1.60;;;;;;;20.84;33.86;98854.24;105103;1272;76709;-23
2022/05/25 07:34:00;;;;;;;4.10;1.70;;;;;;;20.99;33.95;98856.95;104834;1274;75393;-24
2022/05/25 07:36:28;;;;;;;4.30;1.40;;;;;;;21.05;34.09;98854.41;104787;1274;61628;-24
2022/05/25 07:38:58;;;;;;;5.30;1.50;;;;;;;21.19;33.55;98852.46;104960;1274;61802;-24
2022/05/25 07:41:25;;;;;;;3.50;1.50;;;;;;;21.14;32.40;98846.09;105135;1271;75011;-24
2022/05/25 07:43:57;;;;;;;2.10;1.30;;;;;;;21.13;33.53;98846.10;104727;1274;76120;-24
2022/05/25 07:46:26;;;;;;;2.40;1.50;;;;;;;21.36;33.12;98844.23;104729;1274;75525;-24
2022/05/25 07:48:54;;;;;;;1.80;1.30;;;;;;;21.16;32.83;98841.02;104763;1274;63137;-24
2022/05/25 07:51:22;;;;;;;4.30;1.30;;;;;;;21.34;32.39;98844.64;104887;1274;63037;-24
2022/05/25 07:53:55;;;;;;;3.10;1.40;;;;;;;21.70;32.68;98844.75;104717;1274;76630;-24
2022/05/25 07:56:29;;;;;;;4.40;1.40;;;;;;;22.04;32.88;98845.86;105033;1272;75644;-24
2022/05/25 07:59:02;;;;;;;2.50;1.40;;;;;;;22.24;32.88;98843.04;104957;1274;75320;-24
2022/05/25 08:07:03;;;;;;;2.20;1.80;;;;;;;21.76;31.00;98841.41;104580;1273;76585;-24
2022/05/25 08:09:31;;;;;;;2.60;1.30;;;;;;;21.47;31.34;98840.05;104613;1274;77071;-24
2022/05/25 08:11:58;;;;;;;4.50;1.60;;;;;;;21.65;32.76;98841.38;104656;1274;73599;-25
2022/05/25 08:14:25;;;;;;;4.00;1.60;;;;;;;21.63;32.35;98840.54;104717;1274;62792;-24
2022/05/25 08:16:53;;;;;;;2.60;1.60;;;;;;;21.84;33.64;98841.95;104602;1274;62896;-24
2022/05/25 08:19:20;;;;;;;7.20;1.90;;;;;;;22.03;33.48;98844.80;104569;1274;75795;-24
2022/05/25 08:21:48;;;;;;;3.90;1.60;;;;;;;22.28;32.71;98842.58;104676;1274;75898;-24
2022/05/25 08:24:16;;;;;;;3.00;1.20;;;;;;;22.34;32.54;98840.73;104845;1274;74296;-24
2022/05/25 08:26:43;;;;;;;3.40;1.50;;;;;;;22.34;32.51;98841.09;104714;1273;62080;-24
2022/05/25 08:29:10;;;;;;;1.80;1.30;;;;;;;22.45;32.70;98837.17;104605;1274;61972;-24
2022/05/25 08:31:38;;;;;;;5.30;1.10;;;;;;;22.64;31.51;98835.70;104656;1274;76706;-25
2022/05/25 08:34:05;;;;;;;2.70;1.10;;;;;;;22.89;31.65;98833.44;104721;1274;77101;-24
2022/05/25 08:36:33;;;;;;;8.40;1.80;;;;;;;23.11;30.92;98837.52;104599;1275;74469;-24
2022/05/25 08:39:01;;;;;;;6.30;1.30;;;;;;;22.71;30.29;98835.48;104794;1274;62773;-24
2022/05/25 08:41:36;;;;;;;7.40;1.60;;;;;;;23.00;31.11;98838.50;104596;1274;62162;-24
2022/05/25 08:44:03;;;;;;;3.60;1.50;;;;;;;22.81;30.67;98840.50;104623;1274;75152;-24
2022/05/25 08:46:31;;;;;;;2.50;1.40;;;;;;;22.83;30.34;98839.80;104698;1273;75999;-24
2022/05/25 08:49:01;;;;;;;6.80;1.70;;;;;;;23.05;30.99;98841.50;104844;1271;75509;-24
2022/05/25 08:51:47;;;;;;;4.10;1.20;;;;;;;23.01;30.42;98841.31;104696;1272;62777;-24
2022/05/25 08:54:14;;;;;;;2.00;1.40;;;;;;;22.61;29.77;98837.30;104994;1273;61693;-24
2022/05/25 08:56:50;;;;;;;2.00;1.50;;;;;;;22.73;29.95;98839.46;104939;1274;76541;-24
2022/05/25 08:59:28;;;;;;;4.60;1.50;;;;;;;22.91;30.14;98836.02;104776;1274;75712;-24
2022/05/25 09:02:14;;;;;;;3.90;1.40;;;;;;;22.62;30.57;98837.38;104748;1274;75343;-24
2022/05/25 09:04:51;;;;;;;4.70;1.30;;;;;;;22.93;30.54;98838.41;104632;1274;62345;-24
2022/05/25 09:07:54;;;;;;;2.50;1.10;;;;;;;23.18;29.31;98834.73;104871;1274;61436;-24
2022/05/25 09:10:21;;;;;;;1.00;0.90;;;;;;;23.36;29.15;98835.45;104841;1274;76292;-25
2022/05/25 09:12:55;;;;;;;3.70;1.20;;;;;;;23.39;28.08;98831.79;104761;1274;77058;-24
2022/05/25 09:15:30;;;;;;;4.20;1.30;;;;;;;23.32;27.12;98834.68;104615;1274;75369;-24
2022/05/25 09:18:13;;;;;;;2.60;1.20;;;;;;;23.05;27.24;98834.60;104606;1274;62349;-24
2022/05/25 09:20:44;;;;;;;3.50;1.10;;;;;;;22.82;27.56;98834.04;104545;1274;62077;-24
2022/05/25 09:23:12;;;;;;;1.50;1.20;;;;;;;23.10;28.46;98837.91;104644;1274;75684;-24
2022/05/25 09:25:40;;;;;;;10.50;1.30;;;;;;;23.46;26.80;98835.79;104708;1274;77107;-24
2022/05/25 09:28:15;;;;;;;4.00;0.90;;;;;;;23.32;25.85;98835.66;104870;1274;74235;-24
2022/05/25 09:30:46;;;;;;;2.90;1.40;;;;;;;23.55;25.84;98834.45;104651;1274;62914;-24
2022/05/25 09:33:31;;;;;;;2.90;1.20;;;;;;;23.84;26.53;98830.52;104668;1274;63054;-24
2022/05/25 09:36:07;;;;;;;1.30;0.90;;;;;;;24.36;26.23;98834.89;104639;1271;76434;-24
2022/05/25 09:38:43;;;;;;;2.50;1.30;;;;;;;24.65;26.22;98834.38;104551;1274;77012;-24
2022/05/25 09:41:13;;;;;;;1.40;1.00;;;;;;;24.98;24.53;98835.34;104608;1274;75362;-24
2022/05/25 09:43:43;;;;;;;3.10;1.10;;;;;;;24.84;23.53;98829.90;104630;1271;62211;-24
2022/05/25 09:46:29;;;;;;;1.70;0.80;;;;;;;24.97;24.02;98825.65;104635;1271;62385;-24
2022/05/25 09:49:02;;;;;;;2.10;1.10;;;;;;;24.79;25.16;98823.25;104657;1272;77261;-24
2022/05/25 09:51:34;;;;;;;4.70;1.20;;;;;;;25.03;24.55;98819.18;104803;1271;76002;-24
2022/05/25 09:54:26;;;;;;;1.50;1.10;;;;;;;25.15;24.98;98815.23;104743;1274;75425;-25
2022/05/25 09:57:02;;;;;;;4.20;1.10;;;;;;;24.94;25.20;98816.05;104662;1271;61836;-24
2022/05/25 10:00:08;;;;;;;1.10;0.90;;;;;;;25.00;25.88;98814.71;104695;1271;61521;-24
2022/05/25 10:02:48;;;;;;;2.40;1.10;;;;;;;25.01;26.41;98812.81;104801;1271;76888;-24
2022/05/25 10:05:23;;;;;;;2.80;1.20;;;;;;;25.03;26.29;98815.00;104633;1274;76958;-24
2022/05/25 10:07:55;;;;;;;2.20;1.10;;;;;;;24.68;25.32;98808.50;104632;1274;73442;-24
2022/05/25 10:10:32;;;;;;;2.70;1.10;;;;;;;24.55;26.27;98811.27;104423;1274;62163;-24
2022/05/25 10:13:14;;;;;;;2.60;1.10;;;;;;;24.01;25.79;98807.87;104789;1272;61830;-24
2022/05/25 10:15:46;;;;;;;2.00;1.20;;;;;;;23.83;26.35;98802.42;104709;1274;76542;-24
2022/05/25 10:18:13;;;;;;;3.60;1.20;;;;;;;24.22;26.50;98795.42;105027;1271;76961;-24
2022/05/25 10:20:47;;;;;;;4.40;1.40;;;;;;;24.18;26.38;98794.54;104806;1274;75382;-24
2022/05/25 10:23:18;;;;;;;3.00;1.10;;;;;;;24.20;27.71;98792.69;104708;1274;62003;-24
2022/05/25 10:26:19;;;;;;;3.60;1.10;;;;;;;24.41;26.93;98784.94;104630;1274;61958;-24
2022/05/25 10:29:13;;;;;;;4.60;1.20;;;;;;;24.14;26.02;98780.04;104944;1271;76620;-24
2022/05/25 10:37:25;;;;;;;3.00;1.00;;;;;;;23.69;26.47;98770.85;104609;1274;61804;-24
2022/05/25 10:39:52;;;;;;;1.30;0.80;;;;;;;23.90;26.50;98766.01;104412;1274;61182;-24
2022/05/25 10:42:22;;;;;;;1.80;1.00;;;;;;;24.18;26.74;98763.29;104675;1274;75494;-24
2022/05/25 10:45:09;;;;;;;1.80;1.20;;;;;;;24.65;26.88;98756.73;104723;1271;75832;-24
2022/05/25 10:47:52;;;;;;;1.50;1.10;;;;;;;25.04;26.51;98760.09;105077;1273;75549;-24
2022/05/25 10:50:23;;;;;;;2.70;0.90;;;;;;;24.88;26.24;98759.23;104747;1274;63059;-24
2022/05/25 10:53:08;;;;;;;1.90;1.00;;;;;;;24.86;26.11;98756.40;104782;1274;61701;-24
2022/05/25 10:55:54;;;;;;;3.80;1.20;;;;;;;25.00;26.43;98754.48;104625;1274;76400;-24
2022/05/25 10:58:41;;;;;;;3.80;1.20;;;;;;;24.85;25.05;98753.50;104620;1271;76845;-24
2022/05/25 11:01:18;;;;;;;;;;;;;;;24.61;25.36;98748.70;104975;1272;74282;-24
2022/05/25 11:03:51;;;;;;;2.60;1.00;;;;;;;24.25;25.21;98743.23;104815;1271;62033;-24
2022/05/25 11:06:48;;;;;;;2.10;1.20;;;;;;;24.25;25.26;98740.35;104688;1271;61772;-24
2022/05/25 11:09:50;;;;;;;1.30;0.90;;;;;;;24.51;26.79;98734.30;104769;1272;74902;-24
2022/05/25 11:12:57;;;;;;;1.60;1.00;;;;;;;24.88;25.22;98727.81;105119;1271;74851;-24
2022/05/25 11:15:36;;;;;;;1.70;1.10;;;;;;;25.09;26.72;98722.23;104918;1271;75236;-24
2022/05/25 11:18:12;;;;;;;1.50;0.90;;;;;;;25.15;26.05;98730.66;104982;1271;63220;-24
2022/05/25 11:21:17;;;;;;;1.20;1.00;;;;;;;25.24;25.96;98728.55;104655;1271;61798;-24
2022/05/25 11:24:21;;;;;;;0.90;0.80;;;;;;;25.23;25.24;98729.16;104826;1271;76520;-25
2022/05/25 11:26:56;;;;;;;1.40;1.00;;;;;;;25.11;25.65;98730.30;104695;1271;77016;-24
2022/05/25 11:29:46;;;;;;;1.70;1.10;;;;;;;25.57;25.20;98727.30;104666;1271;75592;-24
2022/05/25 11:32:39;;;;;;;6.20;1.40;;;;;;;26.08;24.45;98724.07;104650;1271;61158;-25
2022/05/25 11:35:21;;;;;;;4.40;1.20;;;;;;;26.66;23.47;98722.02;104785;1271;62927;-24
2022/05/25 11:38:08;;;;;;;2.70;1.20;;;;;;;26.90;22.94;98716.58;104824;1271;74219;-24
2022/05/25 11:41:18;;;;;;;1.60;0.90;;;;;;;27.01;22.22;98717.24;105081;1271;76733;-24
2022/05/25 11:43:48;;;;;;;3.00;1.10;;;;;;;26.94;23.80;98712.55;104859;1274;75288;-24
2022/05/25 11:46:34;;;;;;;1.40;1.20;;;;;;;26.95;22.47;98706.77;105081;1271;61790;-24
2022/05/25 11:49:32;;;;;;;4.10;0.90;;;;;;;26.83;23.74;98701.66;105049;1274;61947;-24
2022/05/25 11:52:31;;;;;;;3.90;1.20;;;;;;;26.52;23.52;98701.55;104880;1271;76474;-25
2022/05/25 11:55:26;;;;;;;2.60;1.30;;;;;;;26.38;23.88;98702.38;105130;1271;76186;-25
2022/05/25 11:58:16;;;;;;;1.30;1.00;;;;;;;26.55;23.96;98699.12;105113;1270;75353;-25
2022/05/25 12:01:10;;;;;;;2.70;0.90;;;;;;;26.54;23.12;98694.87;104788;1271;62591;-25
2022/05/25 12:03:56;;;;;;;;;;;;;;;26.70;24.27;98695.05;105119;1271;61983;-26
2022/05/25 12:07:03;;;;;;;2.50;1.00;;;;;;;26.64;23.82;98690.14;104916;1271;74967;-25
2022/05/25 12:09:40;;;;;;;2.60;1.00;;;;;;;26.53;25.79;98683.80;104812;1271;75007;-25
2022/05/25 12:12:43;;;;;;;5.70;1.10;;;;;;;27.07;23.57;98682.36;104747;1274;74196;-25
2022/05/25 12:15:49;;;;;;;1.50;1.10;;;;;;;27.39;23.31;98677.39;104277;1277;61967;-25
2022/05/25 12:18:24;;;;;;;2.50;0.90;;;;;;;27.44;22.45;98675.44;104683;1271;61787;-25
2022/05/25 12:21:07;;;;;;;3.70;1.00;;;;;;;27.35;23.87;98668.09;104655;1271;76474;-25
2022/05/25 12:23:40;;;;;;;2.50;1.10;;;;;;;27.45;23.83;98673.68;104701;1271;77247;-25